This is the latest recevied weather packets stored in our database for station/object GW7287. If no packets are shown the sender has not sent any weather packets the latest 10 day(s).
| Time | Temp. | Humidity | Pressure | Rain* | Wind** | Luminosity | Snow |
|---|---|---|---|---|---|---|---|
| 1787661302 | 23.33° C | 45% | 931.1 hPa | - | - | - | - |
| 1787660922 | 22.22° C | 50% | 931.3 hPa | - | - | - | - |
| 1787658864 | 22.22° C | 50% | 931.3 hPa | - | - | - | - |
| 1787657220 | 21.11° C | 58% | 931.7 hPa | - | - | - | - |
| 1787656673 | 21.11° C | 58% | 931.7 hPa | - | - | - | - |
| 1787655467 | 21.11° C | 58% | 931.7 hPa | - | - | - | - |
| 1787653310 | 19.44° C | 67% | 931.4 hPa | - | - | - | - |
| 1787652061 | 19.44° C | 67% | 931.4 hPa | - | - | - | - |
| 1787650087 | 17.78° C | 80% | 931.4 hPa | - | - | - | - |
| 1787649905 | 17.78° C | 80% | 931.4 hPa | - | - | - | - |
| 1787646830 | 17.78° C | 80% | 931.4 hPa | - | - | - | - |
| 1787646665 | 17.78° C | 80% | 931.4 hPa | - | - | - | - |
| 1787643503 | 17.22° C | 80% | 931.1 hPa | - | - | - | - |
| 1787643355 | 17.22° C | 80% | 931.1 hPa | - | - | - | - |
| 1787639970 | 16.11° C | 83% | 930.7 hPa | - | - | - | - |
| 1787639372 | 16.11° C | 83% | 930.7 hPa | - | - | - | - |
| 1787637374 | 16.67° C | 81% | 930.4 hPa | - | - | - | - |
| 1787635384 | 17.22° C | 78% | 930.6 hPa | - | - | - | - |
| 1787634139 | 17.22° C | 78% | 930.6 hPa | - | - | - | - |
| 1787632176 | 17.22° C | 78% | 930.6 hPa | - | - | - | - |
| 1787630812 | 17.22° C | 76% | 930.6 hPa | - | - | - | - |
| 1787629195 | 17.22° C | 76% | 930.6 hPa | - | - | - | - |
| 1787628285 | 17.78° C | 71% | 930.3 hPa | - | - | - | - |
| 1787624103 | 18.33° C | 67% | 930.3 hPa | - | - | - | - |
| 1787623966 | 18.33° C | 67% | 930.3 hPa | - | - | - | - |
* Rain since midnight (hover to see other rain measurements)
** Current wind speed in m/s (hover to see current wind gust speed)